Time;durP1;ratioP1;P1;durP2;ratioP2;P2;SDS_P1;SDS_P2;PMS_P1;PMS_P2;Temp;Humidity;BMP_temperature;BMP_pressure;BME280_temperature;BME280_humidity;BME280_pressure;Samples;Min_cycle;Max_cycle;Signal;HPM_P1;HPM_P2
2023/04/10 00:01:46;;;;;;;11.63;8.10;;;;;;;10.98;68.70;102018.41;5047555;28;20072;-66
2023/04/10 00:04:14;;;;;;;10.95;7.50;;;;;;;10.97;69.16;102016.78;5041994;28;20045;-66
2023/04/10 00:06:42;;;;;;;9.90;7.30;;;;;;;10.96;69.32;102009.66;5030788;28;20069;-65
2023/04/10 00:09:10;;;;;;;10.90;7.70;;;;;;;10.93;69.72;102005.50;5043042;28;20128;-65
2023/04/10 00:11:38;;;;;;;10.63;7.57;;;;;;;10.93;69.29;102000.06;5028265;28;20091;-65
2023/04/10 00:14:05;;;;;;;10.00;7.28;;;;;;;10.97;69.64;101994.97;5028485;28;20092;-65
2023/04/10 00:16:33;;;;;;;11.05;7.53;;;;;;;10.97;69.20;101979.41;5038140;28;20072;-65
2023/04/10 00:19:01;;;;;;;12.63;7.68;;;;;;;11.00;69.54;101981.66;5046100;28;20734;-65
2023/04/10 00:21:28;;;;;;;11.43;7.60;;;;;;;10.97;69.98;101979.41;5040239;28;20042;-65
2023/04/10 00:23:56;;;;;;;10.27;7.63;;;;;;;10.96;69.91;101972.28;5042924;28;20045;-65
2023/04/10 00:26:25;;;;;;;10.63;7.63;;;;;;;10.96;70.24;101966.84;5043051;28;20095;-65
2023/04/10 00:28:53;;;;;;;10.93;7.75;;;;;;;10.97;70.48;101968.50;5036459;28;20064;-65
2023/04/10 00:31:20;;;;;;;11.32;7.85;;;;;;;10.98;70.04;101956.50;5031832;28;20124;-64
2023/04/10 00:33:48;;;;;;;10.35;7.65;;;;;;;10.96;69.95;101955.94;5033537;28;20547;-67
2023/04/10 00:36:17;;;;;;;10.38;7.30;;;;;;;10.95;70.04;101951.56;5048562;28;20036;-65
2023/04/10 00:38:46;;;;;;;10.35;7.50;;;;;;;10.96;69.81;101950.47;5041873;28;20045;-65
2023/04/10 00:41:14;;;;;;;10.07;6.97;;;;;;;10.96;70.52;101950.47;5084109;28;20073;-66
2023/04/10 00:43:42;;;;;;;10.88;7.50;;;;;;;10.95;69.76;101943.38;5034684;28;20355;-65
2023/04/10 00:46:10;;;;;;;11.00;7.63;;;;;;;10.94;70.04;101943.59;5050350;28;20071;-65
2023/04/10 00:48:39;;;;;;;10.82;7.60;;;;;;;10.91;70.06;101942.19;5047979;28;20044;-65
2023/04/10 00:51:06;;;;;;;11.50;7.78;;;;;;;10.90;69.48;101943.28;5035193;28;20064;-65
2023/04/10 00:53:34;;;;;;;11.27;7.88;;;;;;;10.91;69.94;101938.66;5042203;28;20045;-66
2023/04/10 00:56:02;;;;;;;11.70;8.13;;;;;;;10.91;69.69;101934.00;5044831;28;20489;-67
2023/04/10 00:58:29;;;;;;;10.38;7.05;;;;;;;10.91;69.67;101927.75;5063000;28;20045;-67
2023/04/10 01:00:57;;;;;;;10.60;7.70;;;;;;;10.90;69.62;101929.66;5050148;28;20049;-66
2023/04/10 01:03:26;;;;;;;11.63;7.78;;;;;;;10.88;69.88;101927.16;5052004;28;20111;-64
2023/04/10 01:06:00;;;;;;;14.23;8.27;;;;;;;10.88;69.89;101929.88;5055325;28;20040;-68
2023/04/10 01:08:59;;;;;;;11.13;7.65;;;;;;;10.88;69.72;101929.88;5043400;28;20056;-66
2023/04/10 01:11:46;;;;;;;12.88;8.85;;;;;;;10.88;69.64;101929.06;5035444;28;20045;-66
2023/04/10 01:14:29;;;;;;;11.25;7.95;;;;;;;10.85;69.41;101922.19;5067417;28;20049;-65
2023/04/10 01:17:08;;;;;;;11.35;7.60;;;;;;;10.82;69.63;101928.13;5034729;28;20103;-65
2023/04/10 01:19:51;;;;;;;11.55;7.53;;;;;;;10.78;69.55;101923.41;5035301;28;20050;-67
2023/04/10 01:22:20;;;;;;;10.95;7.78;;;;;;;10.78;69.66;101926.13;5035992;28;20050;-65
2023/04/10 01:25:00;;;;;;;13.35;8.32;;;;;;;10.76;69.79;101917.38;5018243;28;20041;-65
2023/04/10 01:27:45;;;;;;;10.93;7.60;;;;;;;10.72;70.02;101914.28;5018334;28;20049;-64
2023/04/10 01:30:17;;;;;;;10.68;7.68;;;;;;;10.68;69.80;101920.47;5034557;28;20111;-65
2023/04/10 01:32:45;;;;;;;12.02;7.70;;;;;;;10.66;70.34;101915.28;5018054;28;20080;-64
2023/04/10 01:35:15;;;;;;;11.55;7.75;;;;;;;10.68;70.20;101920.47;5034594;28;20080;-66
2023/04/10 01:37:43;;;;;;;10.88;7.50;;;;;;;10.65;70.48;101919.91;5050782;28;20115;-67
2023/04/10 01:40:14;;;;;;;9.93;7.47;;;;;;;10.64;70.87;101910.06;5039634;28;20041;-65
2023/04/10 01:42:52;;;;;;;11.32;7.72;;;;;;;10.65;70.67;101914.44;5029106;28;20042;-66
2023/04/10 01:45:26;;;;;;;11.48;8.43;;;;;;;10.65;70.59;101914.44;5049151;28;20049;-65
2023/04/10 01:47:55;;;;;;;11.77;7.93;;;;;;;10.65;70.57;101914.44;5037135;28;20478;-65
2023/04/10 01:50:23;;;;;;;10.85;7.90;;;;;;;10.64;70.69;101903.78;5068346;28;20049;-65
2023/04/10 01:52:52;;;;;;;12.27;7.95;;;;;;;10.63;70.60;101899.38;5047994;28;20095;-66
2023/04/10 01:55:22;;;;;;;10.85;7.97;;;;;;;10.64;70.89;101898.31;5033994;28;20048;-66
2023/04/10 01:57:55;;;;;;;13.32;8.20;;;;;;;10.64;71.04;101899.16;5018142;28;20048;-65
2023/04/10 02:00:24;;;;;;;11.30;7.95;;;;;;;10.61;70.72;101896.09;5053801;28;20041;-65
2023/04/10 02:02:53;;;;;;;11.15;8.32;;;;;;;10.59;71.16;101890.06;5048793;28;20116;-65
2023/04/10 02:05:21;;;;;;;12.35;9.02;;;;;;;10.59;70.66;101890.88;5039931;28;20052;-65
2023/04/10 02:07:56;;;;;;;12.48;8.23;;;;;;;10.56;71.45;101888.63;5038448;28;20049;-65
2023/04/10 02:10:40;;;;;;;11.82;8.50;;;;;;;10.55;71.27;101878.78;5051211;28;20044;-65
2023/04/10 02:13:11;;;;;;;11.77;7.93;;;;;;;10.54;71.33;101874.41;5043769;28;20099;-66
2023/04/10 02:15:42;;;;;;;10.85;8.05;;;;;;;10.56;71.38;101872.28;5044774;28;20505;-65
2023/04/10 02:18:10;;;;;;;12.77;8.55;;;;;;;10.55;71.71;101873.34;5036183;28;20044;-65
2023/04/10 02:20:38;;;;;;;12.82;8.20;;;;;;;10.52;71.71;101871.09;5042096;28;20076;-64
2023/04/10 02:23:06;;;;;;;11.57;8.27;;;;;;;10.52;71.94;101862.13;5022248;28;20523;-65
2023/04/10 02:25:35;;;;;;;16.48;8.55;;;;;;;10.50;71.35;101865.06;5049433;28;20067;-65
2023/04/10 02:28:04;;;;;;;11.32;8.25;;;;;;;10.50;71.42;101867.78;5053599;28;20059;-65
2023/04/10 02:30:32;;;;;;;11.77;8.18;;;;;;;10.48;71.30;101867.19;5035723;28;20573;-65
2023/04/10 02:33:00;;;;;;;10.88;7.80;;;;;;;10.47;71.13;101865.56;5050095;28;20049;-66
2023/04/10 02:35:30;;;;;;;11.50;8.07;;;;;;;10.47;71.75;101862.84;5040387;28;20041;-66
2023/04/10 02:37:58;;;;;;;11.30;8.30;;;;;;;10.45;71.68;101856.78;5045123;28;20046;-66
2023/04/10 02:40:26;;;;;;;13.25;8.02;;;;;;;10.42;71.29;101857.28;5033947;28;20052;-65
2023/04/10 02:43:06;;;;;;;10.77;7.82;;;;;;;10.43;71.27;101862.47;5043176;28;20473;-66
2023/04/10 02:45:34;;;;;;;11.57;7.80;;;;;;;10.44;71.25;101858.69;5043238;28;20457;-66
2023/04/10 02:48:04;;;;;;;12.65;7.88;;;;;;;10.45;70.98;101867.69;5049776;28;20111;-64
2023/04/10 02:50:31;;;;;;;11.65;8.38;;;;;;;10.44;71.26;101861.41;5051873;28;20044;-64
2023/04/10 02:53:00;;;;;;;11.70;8.18;;;;;;;10.43;70.95;101858.94;5031388;28;20676;-65
2023/04/10 02:55:28;;;;;;;10.65;7.78;;;;;;;10.41;71.42;101853.75;5040717;28;20049;-66
2023/04/10 02:57:55;;;;;;;13.48;8.18;;;;;;;10.41;71.02;101853.75;5042769;28;20049;-65
2023/04/10 03:00:23;;;;;;;12.75;8.32;;;;;;;10.39;70.89;101847.69;5042763;28;20048;-64
2023/04/10 03:03:23;;;;;;;10.73;7.57;;;;;;;10.39;70.79;101842.25;5038976;28;20045;-65
2023/04/10 03:05:54;;;;;;;12.40;8.10;;;;;;;10.40;70.41;101848.53;5022875;28;20056;-64
2023/04/10 03:08:30;;;;;;;12.55;7.75;;;;;;;10.40;70.78;101854.78;5016867;28;20045;-65
2023/04/10 03:10:58;;;;;;;10.57;7.97;;;;;;;10.40;70.98;101854.78;5031680;28;20485;-66
2023/04/10 03:13:28;;;;;;;10.98;7.82;;;;;;;10.39;70.48;101857.75;5031876;28;20405;-66
2023/04/10 03:15:58;;;;;;;12.02;8.23;;;;;;;10.38;70.18;101862.38;5049815;28;20068;-66
2023/04/10 03:18:26;;;;;;;12.60;8.10;;;;;;;10.38;70.01;101867.00;5034516;28;20049;-65
2023/04/10 03:20:55;;;;;;;10.50;7.63;;;;;;;10.37;70.23;101866.19;5032360;28;20053;-65
2023/04/10 03:23:23;;;;;;;12.55;8.15;;;;;;;10.37;70.77;101865.34;5033532;28;20099;-66
2023/04/10 03:25:52;;;;;;;10.77;7.53;;;;;;;10.34;70.35;101863.09;5047811;28;20073;-65
2023/04/10 03:28:23;;;;;;;10.15;7.18;;;;;;;10.33;70.47;101858.72;5033607;28;20504;-65
2023/04/10 03:30:51;;;;;;;10.25;7.53;;;;;;;10.34;70.04;101863.09;5049699;28;20042;-65
2023/04/10 03:33:19;;;;;;;10.52;7.70;;;;;;;10.33;70.51;101859.53;5033021;28;20053;-66
2023/04/10 03:35:47;;;;;;;11.90;8.10;;;;;;;10.31;70.30;101848.06;5033243;28;20107;-65
2023/04/10 03:38:15;;;;;;;11.20;7.38;;;;;;;10.31;70.10;101852.69;5031646;28;20124;-65
2023/04/10 03:40:42;;;;;;;11.20;7.55;;;;;;;10.29;70.39;101852.09;5031328;28;20076;-65
2023/04/10 03:43:11;;;;;;;11.48;7.50;;;;;;;10.29;70.52;101846.66;5046319;28;20051;-64
2023/04/10 03:45:38;;;;;;;10.55;7.55;;;;;;;10.31;70.44;101847.25;5051316;28;20485;-64
2023/04/10 03:48:06;;;;;;;10.32;7.43;;;;;;;10.29;70.39;101838.47;5032875;28;20040;-65
2023/04/10 03:50:41;;;;;;;12.73;7.15;;;;;;;10.27;70.12;101833.25;5015024;28;20049;-64
2023/04/10 03:53:09;;;;;;;10.68;7.35;;;;;;;10.27;70.08;101837.84;5046692;28;20463;-65
2023/04/10 03:55:37;;;;;;;11.50;7.72;;;;;;;10.25;70.46;101838.13;5034554;28;20060;-64
2023/04/10 03:58:05;;;;;;;10.85;7.45;;;;;;;10.21;70.30;101832.31;5047682;28;20076;-64
2023/04/10 04:00:34;;;;;;;10.68;7.65;;;;;;;10.22;70.29;101825.81;5051672;28;20060;-66
2023/04/10 04:03:11;;;;;;;10.90;7.75;;;;;;;10.22;70.07;101825.81;5005276;28;20119;-65
2023/04/10 04:05:58;;;;;;;10.60;7.57;;;;;;;10.21;69.86;101826.84;5050610;28;20131;-65
2023/04/10 04:08:25;;;;;;;10.52;7.05;;;;;;;10.19;69.97;101823.53;5046372;28;20397;-65
2023/04/10 04:11:03;;;;;;;14.18;7.65;;;;;;;10.19;69.93;101812.66;5061114;28;20049;-66
2023/04/10 04:13:37;;;;;;;11.75;8.10;;;;;;;10.19;69.74;101818.09;5017485;28;20045;-65
2023/04/10 04:16:10;;;;;;;12.63;8.13;;;;;;;10.18;69.54;101816.44;5014651;28;20049;-64
2023/04/10 04:18:47;;;;;;;12.82;8.88;;;;;;;10.18;69.85;101812.91;5013803;28;20065;-65
2023/04/10 04:21:30;;;;;;;12.45;8.40;;;;;;;10.14;69.37;101818.00;4997744;28;20081;-66
2023/04/10 04:24:17;;;;;;;12.60;8.18;;;;;;;10.12;69.71;101814.69;5028909;28;20041;-66
2023/04/10 04:27:01;;;;;;;11.73;8.27;;;;;;;10.12;69.42;101808.41;5052789;28;20140;-66
2023/04/10 04:29:49;;;;;;;11.85;7.80;;;;;;;10.12;69.89;101808.41;5016550;28;20101;-65
2023/04/10 04:32:25;;;;;;;10.98;7.30;;;;;;;10.12;69.42;101802.97;5054738;28;20045;-65
2023/04/10 04:35:17;;;;;;;11.30;7.65;;;;;;;10.09;69.40;101804.28;5050991;28;20040;-66
2023/04/10 04:38:15;;;;;;;12.73;7.38;;;;;;;10.11;69.32;101807.59;5060360;28;20045;-64
2023/04/10 04:41:00;;;;;;;10.70;7.70;;;;;;;10.08;69.85;101801.78;5042184;28;20142;-64
2023/04/10 04:43:42;;;;;;;10.18;7.50;;;;;;;10.05;69.17;101803.09;5025214;28;20096;-65
2023/04/10 04:46:45;;;;;;;11.77;7.38;;;;;;;10.05;69.26;101816.69;5034765;28;20115;-65
2023/04/10 04:49:28;;;;;;;10.07;6.97;;;;;;;10.03;69.65;101805.25;5054021;28;20467;-65
2023/04/10 04:52:08;;;;;;;10.25;7.20;;;;;;;10.03;69.18;101803.34;5045060;28;20123;-65
2023/04/10 04:54:42;;;;;;;10.43;7.05;;;;;;;10.04;69.32;101798.72;5034997;28;20041;-66
2023/04/10 04:57:22;;;;;;;10.43;7.75;;;;;;;10.03;69.00;101794.38;5059915;28;20049;-65
2023/04/10 05:00:03;;;;;;;9.73;7.25;;;;;;;9.97;69.06;101795.31;5035145;28;20350;-65
2023/04/10 05:03:00;;;;;;;13.20;7.88;;;;;;;9.94;69.46;101793.06;5047427;28;20057;-66
2023/04/10 05:05:35;;;;;;;11.02;7.55;;;;;;;9.91;69.52;101796.25;5027784;28;20048;-66
2023/04/10 05:08:24;;;;;;;11.07;7.70;;;;;;;9.92;70.06;101787.03;5038965;28;20080;-65
2023/04/10 05:10:57;;;;;;;12.65;7.80;;;;;;;9.90;69.48;101779.09;5034813;28;20099;-65
2023/04/10 05:13:54;;;;;;;9.57;6.63;;;;;;;9.91;69.56;101775.31;5034075;28;20049;-66
2023/04/10 05:16:22;;;;;;;13.13;7.22;;;;;;;9.92;69.43;101771.53;5035607;28;20067;-64
2023/04/10 05:19:10;;;;;;;10.90;7.38;;;;;;;9.95;68.99;101775.66;5033827;28;20057;-65
2023/04/10 05:21:56;;;;;;;11.90;7.70;;;;;;;9.93;69.09;101772.34;5036891;28;20133;-64
2023/04/10 05:25:02;;;;;;;12.00;8.00;;;;;;;9.94;69.25;101774.00;5034630;28;20401;-64
2023/04/10 05:27:46;;;;;;;12.15;7.65;;;;;;;9.96;68.89;101767.25;5034193;28;20440;-65
2023/04/10 05:30:39;;;;;;;10.20;7.38;;;;;;;9.97;68.74;101765.34;5002392;28;20041;-66
2023/04/10 05:33:32;;;;;;;12.20;7.43;;;;;;;9.95;68.96;101768.31;5024218;28;20054;-66
2023/04/10 05:36:22;;;;;;;12.07;7.22;;;;;;;9.94;69.28;101763.94;5017978;28;20493;-65
2023/04/10 05:39:19;;;;;;;12.93;7.78;;;;;;;9.94;69.02;101763.13;5007262;28;20119;-65
2023/04/10 05:41:57;;;;;;;11.23;8.07;;;;;;;9.96;69.31;101766.44;5020224;28;20124;-64
2023/04/10 05:44:33;;;;;;;10.80;7.60;;;;;;;9.98;69.29;101775.16;5038284;28;20045;-66
2023/04/10 05:47:21;;;;;;;10.82;7.85;;;;;;;10.00;68.96;101768.41;5023229;28;20359;-66
2023/04/10 05:49:56;;;;;;;11.32;7.55;;;;;;;10.01;69.02;101763.81;5045797;28;20045;-65
2023/04/10 05:52:42;;;;;;;13.43;8.23;;;;;;;10.04;68.91;101768.78;5036158;28;20037;-66
2023/04/10 05:55:26;;;;;;;12.95;7.93;;;;;;;10.05;68.79;101770.41;5039833;28;20052;-66
2023/04/10 05:58:12;;;;;;;15.20;7.72;;;;;;;10.05;68.99;101767.69;5075908;28;20059;-64
2023/04/10 06:01:18;;;;;;;13.02;8.05;;;;;;;10.06;68.98;101766.63;5026734;28;20111;-65
2023/04/10 06:03:54;;;;;;;10.55;7.47;;;;;;;10.08;68.93;101761.78;5012435;28;20068;-65
2023/04/10 06:06:24;;;;;;;11.20;7.53;;;;;;;10.09;69.01;101760.72;5034950;28;20049;-66
2023/04/10 06:08:52;;;;;;;10.95;8.00;;;;;;;10.06;68.79;101758.47;5034097;28;20183;-65
2023/04/10 06:11:21;;;;;;;12.55;8.07;;;;;;;10.06;68.83;101754.94;5047609;28;20073;-65
2023/04/10 06:13:52;;;;;;;12.15;8.18;;;;;;;10.08;69.51;101764.50;5033467;28;20061;-66
2023/04/10 06:16:26;;;;;;;12.05;8.18;;;;;;;10.09;69.14;101774.31;5016316;28;20422;-66
2023/04/10 06:18:54;;;;;;;13.43;8.82;;;;;;;10.11;69.14;101774.09;5032693;28;20087;-65
2023/04/10 06:21:22;;;;;;;12.70;8.77;;;;;;;10.12;69.24;101768.38;5040936;28;20049;-64
2023/04/10 06:23:50;;;;;;;11.63;8.43;;;;;;;10.11;69.39;101755.84;5044386;28;20049;-66
2023/04/10 06:26:18;;;;;;;13.13;8.15;;;;;;;10.11;69.74;101755.84;5048844;28;20037;-65
2023/04/10 06:28:46;;;;;;;13.27;8.70;;;;;;;10.12;68.97;101748.50;5032973;28;20129;-64
2023/04/10 06:31:16;;;;;;;12.48;8.55;;;;;;;10.11;69.35;101757.75;5035114;28;20049;-64
2023/04/10 06:33:44;;;;;;;12.88;8.32;;;;;;;10.07;69.30;101746.50;5040097;28;20049;-65
2023/04/10 06:36:12;;;;;;;11.52;8.38;;;;;;;10.07;69.62;101742.97;5017750;28;20046;-66
2023/04/10 06:39:03;;;;;;;11.23;8.27;;;;;;;10.08;69.79;101730.97;5031378;28;20141;-69
2023/04/10 06:41:32;;;;;;;13.93;8.73;;;;;;;10.08;69.57;101737.28;5015953;28;20046;-66
2023/04/10 06:44:14;;;;;;;11.80;8.52;;;;;;;10.10;69.73;101732.44;5049383;28;20136;-64
2023/04/10 06:46:42;;;;;;;12.85;8.57;;;;;;;10.13;69.36;101728.38;5031491;28;20136;-65
2023/04/10 06:49:10;;;;;;;12.70;8.77;;;;;;;10.15;69.19;101731.66;5033542;28;20401;-66
2023/04/10 06:51:38;;;;;;;12.20;8.43;;;;;;;10.16;70.03;101726.00;5031805;28;20049;-65
2023/04/10 06:54:05;;;;;;;13.90;7.93;;;;;;;10.21;69.62;101720.63;5036674;28;20061;-64
2023/04/10 06:56:33;;;;;;;11.60;8.27;;;;;;;10.23;69.91;101715.78;5052523;28;20128;-65
2023/04/10 06:59:01;;;;;;;12.18;8.50;;;;;;;10.25;69.29;101712.81;5052470;28;20504;-65
2023/04/10 07:01:29;;;;;;;11.43;9.27;;;;;;;10.23;69.61;101710.31;5032126;28;20405;-65
2023/04/10 07:03:56;;;;;;;13.70;9.25;;;;;;;10.24;69.70;101703.81;5001911;28;20128;-66
2023/04/10 07:06:25;;;;;;;12.80;9.50;;;;;;;10.19;69.66;101695.53;5032308;28;20526;-64
2023/04/10 07:08:53;;;;;;;13.48;9.82;;;;;;;10.17;69.88;101684.09;5032365;28;20486;-66
2023/04/10 07:11:21;;;;;;;12.88;9.73;;;;;;;10.17;69.92;101684.09;5032996;28;20054;-66
2023/04/10 07:13:52;;;;;;;12.25;8.88;;;;;;;10.18;69.89;101677.56;5033466;28;20053;-66
2023/04/10 07:16:20;;;;;;;13.23;9.00;;;;;;;10.18;69.89;101680.28;5032024;28;20143;-65
2023/04/10 07:18:48;;;;;;;13.43;9.40;;;;;;;10.18;69.58;101682.19;5033353;28;20053;-65
2023/04/10 07:21:16;;;;;;;13.93;9.30;;;;;;;10.19;69.83;101668.31;5016074;28;20115;-66
2023/04/10 07:23:43;;;;;;;13.13;8.90;;;;;;;10.24;69.65;101670.28;5033145;28;20107;-65
2023/04/10 07:26:11;;;;;;;14.15;8.95;;;;;;;10.30;69.50;101661.19;5033069;28;20076;-65
2023/04/10 07:28:39;;;;;;;16.52;8.55;;;;;;;10.36;69.25;101656.66;5031813;28;20489;-65
2023/04/10 07:31:07;;;;;;;12.93;9.57;;;;;;;10.39;69.15;101650.69;5033295;28;20048;-65
2023/04/10 07:33:35;;;;;;;12.60;9.07;;;;;;;10.38;68.71;101644.44;5033408;28;20041;-66
2023/04/10 07:36:04;;;;;;;14.93;8.55;;;;;;;10.40;68.74;101646.91;5031517;28;20133;-66
2023/04/10 07:38:32;;;;;;;12.10;8.73;;;;;;;10.41;68.45;101633.06;5015555;28;20130;-65
2023/04/10 07:41:00;;;;;;;12.50;8.20;;;;;;;10.41;68.47;101645.84;5031255;28;20116;-66
2023/04/10 07:43:28;;;;;;;13.95;8.75;;;;;;;10.44;68.65;101640.72;5015542;28;20045;-66
2023/04/10 07:45:56;;;;;;;12.10;9.05;;;;;;;10.43;68.09;101627.34;5015539;28;20485;-66
2023/04/10 07:48:24;;;;;;;12.70;9.13;;;;;;;10.47;68.46;101625.78;5033508;28;20045;-66
2023/04/10 07:50:52;;;;;;;12.45;8.07;;;;;;;10.51;69.14;101621.50;5032090;28;20511;-66
2023/04/10 07:53:19;;;;;;;12.90;9.20;;;;;;;10.53;68.08;101615.78;5031722;28;20045;-65
2023/04/10 07:55:49;;;;;;;13.68;7.97;;;;;;;10.57;68.18;101614.22;5033253;28;20050;-66
2023/04/10 07:58:16;;;;;;;12.48;8.77;;;;;;;10.60;68.66;101614.53;5015440;28;20129;-66
2023/04/10 08:00:45;;;;;;;12.05;8.23;;;;;;;10.64;68.54;101610.25;5031477;28;20076;-66
2023/04/10 08:03:14;;;;;;;11.48;7.82;;;;;;;10.72;68.98;101617.19;5032726;28;20103;-66
2023/04/10 08:05:42;;;;;;;12.73;8.20;;;;;;;10.75;67.98;101604.94;5032974;28;20046;-66
2023/04/10 08:08:10;;;;;;;12.48;8.65;;;;;;;10.76;67.96;101596.53;5034343;28;20555;-66
2023/04/10 08:10:38;;;;;;;12.90;8.88;;;;;;;10.83;67.24;101597.19;5033133;28;20111;-66
2023/04/10 08:13:06;;;;;;;10.48;8.25;;;;;;;10.86;68.04;101604.03;5033120;28;20076;-66
2023/04/10 08:15:34;;;;;;;11.60;8.23;;;;;;;10.89;67.62;101606.25;5032108;28;20077;-66
2023/04/10 08:18:01;;;;;;;11.32;7.80;;;;;;;10.93;67.43;101596.50;5033108;28;20083;-66
2023/04/10 08:20:35;;;;;;;10.55;7.43;;;;;;;10.99;67.81;101598.22;5032743;28;20465;-66
2023/04/10 08:23:03;;;;;;;11.98;8.52;;;;;;;11.03;67.39;101588.44;5016402;28;20148;-66
2023/04/10 08:25:47;;;;;;;19.58;8.60;;;;;;;11.13;66.58;101585.03;5031831;28;20619;-66
2023/04/10 08:28:14;;;;;;;11.52;7.97;;;;;;;11.23;67.15;101578.88;5031861;28;20049;-66
2023/04/10 08:30:42;;;;;;;11.63;8.13;;;;;;;11.19;66.34;101591.41;5032655;28;20558;-65
2023/04/10 08:33:10;;;;;;;12.55;7.57;;;;;;;11.17;65.00;101585.38;5033051;28;20067;-66
2023/04/10 08:35:37;;;;;;;12.20;8.20;;;;;;;11.18;65.84;101596.00;5032862;28;20489;-65
2023/04/10 08:38:05;;;;;;;10.45;7.70;;;;;;;11.21;65.68;101590.06;5032213;28;20061;-66
2023/04/10 08:40:37;;;;;;;10.85;7.53;;;;;;;11.24;66.60;101581.38;5032637;28;20504;-65
2023/04/10 08:43:05;;;;;;;11.00;7.60;;;;;;;11.27;66.38;101580.84;5032374;28;20053;-65
2023/04/10 08:45:33;;;;;;;11.05;7.50;;;;;;;11.31;67.29;101583.91;5019105;28;20041;-65
2023/04/10 08:48:04;;;;;;;14.13;7.47;;;;;;;11.37;66.91;101585.59;5034417;28;20542;-65
2023/04/10 08:50:35;;;;;;;16.13;8.02;;;;;;;11.53;68.79;101581.16;5034303;28;20049;-65
2023/04/10 08:53:10;;;;;;;9.90;7.32;;;;;;;11.53;64.66;101572.97;5035555;28;20509;-66
2023/04/10 08:55:39;;;;;;;10.30;7.10;;;;;;;11.52;64.69;101571.34;5055518;28;20051;-65
2023/04/10 08:58:07;;;;;;;10.10;7.50;;;;;;;11.54;64.32;101566.41;5038582;28;20050;-65
2023/04/10 09:00:37;;;;;;;10.10;7.10;;;;;;;11.49;65.39;101567.19;5038774;28;20050;-66
2023/04/10 09:03:12;;;;;;;12.30;6.88;;;;;;;11.48;64.99;101570.19;5022260;28;20049;-66
2023/04/10 09:05:41;;;;;;;11.20;7.60;;;;;;;11.51;64.82;101564.22;5022357;28;20056;-67
2023/04/10 09:08:09;;;;;;;12.77;8.10;;;;;;;11.56;65.70;101572.44;5036063;28;20064;-66
2023/04/10 09:10:38;;;;;;;14.15;7.63;;;;;;;11.62;66.40;101565.16;5033915;28;20060;-65
2023/04/10 09:13:05;;;;;;;10.65;7.03;;;;;;;11.63;65.72;101556.69;5019190;28;20049;-66
2023/04/10 09:15:59;;;;;;;10.40;7.03;;;;;;;11.66;66.27;101549.91;5036000;28;20048;-65
2023/04/10 09:19:01;;;;;;;12.32;7.82;;;;;;;11.67;66.64;101543.38;5018134;28;20076;-66
2023/04/10 09:21:32;;;;;;;11.23;7.85;;;;;;;11.70;66.43;101540.13;5005266;28;20358;-66
2023/04/10 09:24:00;;;;;;;15.80;7.60;;;;;;;11.75;67.13;101545.63;5016382;28;20077;-65
2023/04/10 09:26:29;;;;;;;11.20;7.65;;;;;;;11.74;65.97;101530.34;5016184;28;20473;-66
2023/04/10 09:29:05;;;;;;;11.20;8.00;;;;;;;11.76;66.42;101536.38;5010939;28;20057;-66
2023/04/10 09:31:35;;;;;;;10.23;7.43;;;;;;;11.76;66.15;101530.06;5034799;28;20057;-66
2023/04/10 09:34:29;;;;;;;10.80;7.72;;;;;;;11.77;67.46;101518.06;5034743;28;20137;-66
2023/04/10 09:37:00;;;;;;;12.60;6.75;;;;;;;11.82;67.24;101518.94;5035007;28;20096;-66
2023/04/10 09:39:41;;;;;;;11.18;7.25;;;;;;;11.80;67.63;101507.44;5033611;28;20049;-66
2023/04/10 09:42:13;;;;;;;11.50;7.47;;;;;;;11.80;67.49;101502.00;5034434;28;20085;-65
2023/04/10 09:44:42;;;;;;;11.07;7.53;;;;;;;11.83;67.90;101506.09;5034005;28;20049;-66
2023/04/10 09:47:20;;;;;;;13.43;7.15;;;;;;;11.85;67.45;101502.03;5017816;28;20058;-66
2023/04/10 09:49:52;;;;;;;13.25;8.18;;;;;;;11.91;68.30;101490.13;5015325;28;20112;-67
2023/04/10 09:52:27;;;;;;;10.95;8.10;;;;;;;11.93;67.23;101478.94;5015846;28;20045;-67
2023/04/10 09:55:07;;;;;;;12.80;7.37;;;;;;;11.97;68.04;101480.03;5015722;28;20148;-66
2023/04/10 09:57:35;;;;;;;12.32;7.88;;;;;;;11.99;67.89;101472.41;5014726;28;20354;-67
2023/04/10 10:00:05;;;;;;;11.48;7.90;;;;;;;12.00;68.18;101467.78;5035087;28;20049;-65
2023/04/10 10:02:40;;;;;;;10.50;7.25;;;;;;;12.08;67.48;101470.84;5034336;28;20428;-66
2023/04/10 10:05:09;;;;;;;11.38;8.13;;;;;;;12.08;67.95;101470.84;5033770;28;20073;-65
2023/04/10 10:07:38;;;;;;;11.20;6.53;;;;;;;12.13;68.02;101459.13;5034707;28;20046;-65
2023/04/10 10:10:07;;;;;;;11.27;7.32;;;;;;;12.18;67.89;101470.09;5034728;28;20053;-66
2023/04/10 10:12:46;;;;;;;15.70;7.07;;;;;;;12.25;69.17;101465.22;5033978;28;20050;-66
2023/04/10 10:15:37;;;;;;;11.98;7.60;;;;;;;12.28;67.83;101459.22;5017663;28;20432;-65
2023/04/10 10:18:39;;;;;;;11.20;7.78;;;;;;;12.33;66.40;101462.00;5033025;28;20112;-64
2023/04/10 10:21:09;;;;;;;12.93;6.40;;;;;;;12.41;68.15;101452.50;5050217;28;20068;-65
2023/04/10 10:23:37;;;;;;;11.65;7.30;;;;;;;12.42;67.50;101453.31;5034710;28;20091;-65
2023/04/10 10:26:05;;;;;;;11.23;7.20;;;;;;;12.41;67.07;101452.50;5017376;28;20042;-66
2023/04/10 10:28:33;;;;;;;13.63;7.30;;;;;;;12.43;68.17;101438.53;5034358;28;20045;-66
2023/04/10 10:31:03;;;;;;;10.65;7.28;;;;;;;12.46;68.22;101421.59;5034841;28;20542;-66
2023/04/10 10:33:31;;;;;;;11.23;7.53;;;;;;;12.46;67.95;101411.53;5036131;28;20063;-65
2023/04/10 10:36:03;;;;;;;11.68;7.60;;;;;;;12.51;68.38;101422.47;5017998;28;20505;-66
2023/04/10 10:38:32;;;;;;;11.73;7.90;;;;;;;12.59;68.44;101412.94;5017341;28;20084;-67
2023/04/10 10:41:16;;;;;;;12.15;7.25;;;;;;;12.63;68.49;101403.13;5017907;28;20049;-65
2023/04/10 10:44:08;;;;;;;10.75;7.60;;;;;;;12.67;69.16;101412.41;5017569;28;20095;-66
2023/04/10 10:46:48;;;;;;;10.95;7.13;;;;;;;12.75;69.63;101403.72;5032951;28;20144;-67
2023/04/10 10:49:15;;;;;;;11.18;7.60;;;;;;;12.81;70.08;101406.44;5017286;28;20041;-65
2023/04/10 10:51:48;;;;;;;11.70;7.40;;;;;;;12.85;69.49;101386.50;5035162;28;20149;-68
2023/04/10 10:54:33;;;;;;;11.07;6.60;;;;;;;12.93;69.82;101387.88;5035665;28;20057;-65
2023/04/10 10:57:02;;;;;;;12.35;6.45;;;;;;;13.07;73.12;101377.25;5035346;28;20056;-65
2023/04/10 10:59:48;;;;;;;9.40;6.55;;;;;;;13.05;66.64;101369.31;5049992;28;20491;-66
2023/04/10 11:02:16;;;;;;;;;;;;;;;13.06;66.16;101375.59;5049553;28;20052;-66
2023/04/10 11:04:46;;;;;;;9.57;6.25;;;;;;;13.09;66.35;101364.94;5054370;28;20357;-64
2023/04/10 11:07:15;;;;;;;8.95;5.70;;;;;;;13.15;66.18;101363.03;5043310;28;20065;-65
2023/04/10 11:09:56;;;;;;;9.88;5.93;;;;;;;13.23;66.10;101365.25;5033971;28;20107;-66
2023/04/10 11:13:16;;;;;;;9.21;5.39;;;;;;;13.33;64.76;101350.78;4997534;28;10000484;-67
2023/04/10 11:15:44;;;;;;;10.85;5.65;;;;;;;13.42;67.52;101351.84;5010769;28;20931;-67
2023/04/10 11:18:12;;;;;;;13.15;6.20;;;;;;;13.49;68.20;101341.44;5034663;28;20056;-67
2023/04/10 11:21:09;;;;;;;9.73;5.50;;;;;;;13.57;64.97;101342.81;5048399;28;20053;-67
2023/04/10 11:23:58;;;;;;;9.70;5.30;;;;;;;13.68;64.78;101343.63;5051107;28;20105;-65
2023/04/10 11:26:40;;;;;;;8.00;4.90;;;;;;;13.79;68.89;101334.31;5040294;28;20080;-65
2023/04/10 11:29:20;;;;;;;10.13;4.93;;;;;;;13.82;65.75;101329.06;5044902;28;20056;-66
2023/04/10 11:31:56;;;;;;;13.02;5.25;;;;;;;13.95;73.37;101324.09;5030141;28;20037;-66
2023/04/10 11:34:26;;;;;;;;;;;;;;;14.07;75.09;101305.47;5030118;28;20088;-66
2023/04/10 11:36:54;;;;;;;12.35;5.18;;;;;;;14.19;74.29;101302.38;5044394;28;20012;-65
2023/04/10 11:39:22;;;;;;;12.07;5.38;;;;;;;14.22;71.33;101302.66;5030272;28;20057;-66
2023/04/10 11:41:55;;;;;;;8.43;4.68;;;;;;;14.23;71.28;101300.72;5029306;28;20110;-65
2023/04/10 11:44:34;;;;;;;14.02;5.32;;;;;;;14.28;66.72;101298.78;5047847;28;20084;-66
2023/04/10 11:47:02;;;;;;;11.20;5.28;;;;;;;14.36;65.96;101293.81;5036932;28;20069;-65
2023/04/10 11:49:31;;;;;;;13.07;4.80;;;;;;;14.39;69.37;101299.56;5029489;28;20737;-65